Time;durP1;ratioP1;P1;durP2;ratioP2;P2;SDS_P1;SDS_P2;PMS_P1;PMS_P2;Temp;Humidity;BMP_temperature;BMP_pressure;BME280_temperature;BME280_humidity;BME280_pressure;Samples;Min_cycle;Max_cycle;Signal;HPM_P1;HPM_P2
2022/04/24 00:01:20;;;;;;;17.47;8.90;;;;;;;5.78;100.00;100086.25;7392627;19;20372;-46
2022/04/24 00:03:50;;;;;;;18.40;9.47;;;;;;;5.81;100.00;100073.59;7383765;19;20974;-47
2022/04/24 00:06:24;;;;;;;16.47;9.50;;;;;;;5.84;100.00;100061.78;7391774;19;20413;-47
2022/04/24 00:08:53;;;;;;;16.50;9.93;;;;;;;5.76;100.00;100069.97;7385078;19;20985;-46
2022/04/24 00:11:26;;;;;;;17.50;9.20;;;;;;;5.77;100.00;100056.34;7393876;19;20384;-50
2022/04/24 00:13:55;;;;;;;23.80;12.90;;;;;;;5.74;100.00;100047.63;7395339;19;20801;-46
2022/04/24 00:16:25;;;;;;;19.93;10.90;;;;;;;5.73;100.00;100046.75;7400979;19;20396;-44
2022/04/24 00:18:54;;;;;;;15.27;9.83;;;;;;;5.75;100.00;100034.91;7394128;19;20445;-48
2022/04/24 00:21:24;;;;;;;17.60;10.80;;;;;;;5.69;100.00;100026.91;7399480;19;20412;-44
2022/04/24 00:23:53;;;;;;;21.70;11.50;;;;;;;5.69;100.00;100024.34;7393580;19;20420;-46
2022/04/24 00:26:26;;;;;;;21.03;11.07;;;;;;;5.73;100.00;100028.81;7399120;19;20750;-47
2022/04/24 00:28:55;;;;;;;20.73;10.63;;;;;;;5.70;100.00;100023.56;7389497;19;20425;-45
2022/04/24 00:31:25;;;;;;;19.50;11.43;;;;;;;5.70;100.00;100015.91;7396780;19;20389;-44
2022/04/24 00:33:55;;;;;;;24.53;10.97;;;;;;;5.68;100.00;99997.00;7392886;19;20412;-47
2022/04/24 00:36:24;;;;;;;22.53;11.77;;;;;;;5.65;100.00;99990.03;7397736;19;20394;-46
2022/04/24 00:38:54;;;;;;;20.17;11.50;;;;;;;5.67;100.00;99987.56;7393246;19;20426;-47
2022/04/24 00:41:26;;;;;;;26.20;12.03;;;;;;;5.63;100.00;99977.97;7398854;19;20396;-45
2022/04/24 00:43:56;;;;;;;22.63;11.87;;;;;;;5.61;100.00;99971.91;7391902;19;20410;-45
2022/04/24 00:46:41;;;;;;;28.60;16.30;;;;;;;5.60;100.00;99958.25;7400635;19;20941;-46
2022/04/24 00:49:11;;;;;;;22.63;11.57;;;;;;;5.59;100.00;99953.06;7387186;19;20448;-49
2022/04/24 00:51:42;;;;;;;22.47;11.70;;;;;;;5.56;100.00;99953.78;7398634;19;20384;-44
2022/04/24 00:54:13;;;;;;;22.07;11.70;;;;;;;5.62;100.00;99953.19;7388978;19;20435;-45
2022/04/24 00:56:46;;;;;;;17.67;10.33;;;;;;;5.65;100.00;99943.13;7398385;19;20410;-44
2022/04/24 00:59:17;;;;;;;20.93;11.60;;;;;;;5.56;100.00;99937.53;7394302;19;21071;-46
2022/04/24 01:01:47;;;;;;;17.83;9.70;;;;;;;5.54;100.00;99940.91;7398315;19;20725;-47
2022/04/24 01:04:16;;;;;;;20.87;10.27;;;;;;;5.56;100.00;99948.66;7395286;19;20405;-45
2022/04/24 01:06:46;;;;;;;14.67;9.40;;;;;;;5.57;100.00;99949.53;7399326;19;20479;-48
2022/04/24 01:09:17;;;;;;;28.07;12.67;;;;;;;5.56;100.00;99948.66;7383989;19;20764;-46
2022/04/24 01:11:51;;;;;;;16.77;9.40;;;;;;;5.51;100.00;99951.00;7396882;19;20419;-48
2022/04/24 01:14:22;;;;;;;28.80;13.10;;;;;;;5.49;100.00;99951.72;7392546;19;20963;-46
2022/04/24 01:16:52;;;;;;;16.13;7.67;;;;;;;5.38;100.00;99952.06;7391482;19;20377;-48
2022/04/24 01:19:24;;;;;;;22.23;9.07;;;;;;;5.38;100.00;99951.16;7397290;19;20379;-45
2022/04/24 01:21:56;;;;;;;14.83;9.10;;;;;;;5.35;100.00;99954.47;7391554;19;20719;-45
2022/04/24 01:24:30;;;;;;;12.93;7.20;;;;;;;5.41;100.00;99964.13;7393615;19;20396;-45
2022/04/24 01:27:00;;;;;;;11.00;7.00;;;;;;;5.38;100.00;99963.97;7390745;19;20488;-52
2022/04/24 01:29:29;;;;;;;13.97;7.03;;;;;;;5.43;100.00;99964.22;7394811;19;20376;-45
2022/04/24 01:31:59;;;;;;;15.60;8.13;;;;;;;5.39;100.00;99965.75;7391189;19;20388;-44
2022/04/24 01:34:28;;;;;;;13.83;6.90;;;;;;;5.36;100.00;99974.13;7395864;19;20412;-44
2022/04/24 01:37:00;;;;;;;13.40;7.53;;;;;;;5.39;100.00;99975.97;7392400;19;20381;-44
2022/04/24 01:39:30;;;;;;;10.73;5.80;;;;;;;5.37;100.00;99978.44;7395854;19;20392;-45
2022/04/24 01:41:59;;;;;;;9.33;5.20;;;;;;;5.42;100.00;99985.50;7390304;19;20740;-43
2022/04/24 01:44:29;;;;;;;11.97;7.03;;;;;;;5.42;100.00;99993.16;7393621;19;20419;-44
2022/04/24 01:46:58;;;;;;;21.13;8.10;;;;;;;5.43;100.00;99988.09;7390864;19;20396;-45
2022/04/24 01:49:28;;;;;;;9.50;5.70;;;;;;;5.33;100.00;100001.25;7394518;19;20391;-44
2022/04/24 01:51:57;;;;;;;17.33;7.43;;;;;;;5.30;100.00;99991.75;7391392;19;20406;-44
2022/04/24 01:54:30;;;;;;;12.50;6.10;;;;;;;5.33;100.00;100001.25;7394382;19;20419;-45
2022/04/24 01:56:59;;;;;;;12.87;5.23;;;;;;;5.26;100.00;99995.81;7392038;19;20372;-46
2022/04/24 01:59:29;;;;;;;13.03;5.57;;;;;;;5.19;100.00;100004.00;7395910;19;20909;-47
2022/04/24 02:01:58;;;;;;;18.60;9.57;;;;;;;5.20;100.00;100015.06;7389748;19;20384;-46
2022/04/24 02:04:28;;;;;;;8.47;5.67;;;;;;;5.24;100.00;100010.19;7392628;19;20395;-46
2022/04/24 02:06:57;;;;;;;11.03;5.40;;;;;;;5.21;100.00;100001.47;7392444;19;20733;-44
2022/04/24 02:09:30;;;;;;;16.33;7.63;;;;;;;5.20;100.00;100020.19;7398435;19;20422;-45
2022/04/24 02:11:59;;;;;;;16.80;9.00;;;;;;;5.18;100.00;100017.53;7390177;19;20381;-44
2022/04/24 02:14:28;;;;;;;13.47;6.00;;;;;;;5.15;100.00;100017.41;7393800;19;20439;-44
2022/04/24 02:16:58;;;;;;;11.27;6.97;;;;;;;5.16;100.00;100019.16;7390582;19;20393;-45
2022/04/24 02:19:27;;;;;;;11.43;5.57;;;;;;;5.08;100.00;100020.44;7394312;19;20399;-44
2022/04/24 02:21:57;;;;;;;8.80;5.13;;;;;;;5.11;100.00;100029.16;7389140;19;20392;-47
2022/04/24 02:24:26;;;;;;;25.47;11.70;;;;;;;5.03;100.00;100029.53;7392683;19;20411;-45
2022/04/24 02:26:58;;;;;;;8.40;5.50;;;;;;;4.99;100.00;100029.38;7387292;19;20379;-47
2022/04/24 02:29:28;;;;;;;9.90;4.80;;;;;;;4.97;100.00;100025.00;7393767;19;20390;-45
2022/04/24 02:31:58;;;;;;;13.33;7.17;;;;;;;4.94;100.00;100027.38;7389860;19;20921;-46
2022/04/24 02:34:28;;;;;;;12.10;6.37;;;;;;;4.98;100.00;100029.31;7392493;19;20429;-44
2022/04/24 02:36:57;;;;;;;11.30;5.83;;;;;;;4.94;100.00;100022.28;7390024;19;20384;-43
2022/04/24 02:39:27;;;;;;;15.90;7.30;;;;;;;4.90;100.00;100028.00;7394749;19;20384;-46
2022/04/24 02:41:59;;;;;;;13.00;5.57;;;;;;;4.83;100.00;100022.56;7386713;19;20462;-44
2022/04/24 02:44:28;;;;;;;15.43;8.23;;;;;;;4.77;100.00;100019.69;7393057;19;20416;-46
2022/04/24 02:46:58;;;;;;;15.87;5.33;;;;;;;4.80;100.00;100022.41;7389962;19;20387;-45
2022/04/24 02:49:27;;;;;;;11.77;6.00;;;;;;;4.74;100.00;100016.97;7393260;19;20395;-49
2022/04/24 02:51:57;;;;;;;12.17;6.50;;;;;;;4.72;100.00;100022.00;7388920;19;20379;-45
2022/04/24 02:54:26;;;;;;;11.47;6.90;;;;;;;4.70;100.00;100021.06;7391665;19;20414;-45
2022/04/24 02:56:59;;;;;;;10.20;6.40;;;;;;;4.71;100.00;100015.13;7387209;19;20911;-47
2022/04/24 02:59:29;;;;;;;11.77;5.20;;;;;;;4.71;100.00;100010.03;7396882;19;20382;-46
2022/04/24 03:01:59;;;;;;;16.80;6.47;;;;;;;4.71;100.00;100010.03;7387474;19;20535;-45
2022/04/24 03:04:28;;;;;;;17.50;8.23;;;;;;;4.64;100.00;100013.06;7392193;19;20423;-45
2022/04/24 03:06:58;;;;;;;11.77;5.80;;;;;;;4.64;100.00;100009.59;7387255;19;20388;-46
2022/04/24 03:09:27;;;;;;;15.43;7.00;;;;;;;4.68;100.00;100007.28;7391938;19;20383;-45
2022/04/24 03:11:59;;;;;;;14.03;7.17;;;;;;;4.54;100.00;100005.69;7389237;19;20388;-45
2022/04/24 03:14:29;;;;;;;11.03;5.07;;;;;;;4.57;100.00;100001.63;7391225;19;20422;-43
2022/04/24 03:16:58;;;;;;;34.37;12.93;;;;;;;4.49;100.00;100002.00;7387824;19;20914;-44
2022/04/24 03:19:28;;;;;;;14.07;6.37;;;;;;;4.42;100.00;99998.25;7394992;19;20423;-44
2022/04/24 03:21:57;;;;;;;10.50;6.43;;;;;;;4.49;100.00;99986.66;7391216;19;20407;-47
2022/04/24 03:24:27;;;;;;;16.47;7.00;;;;;;;4.46;100.00;99978.03;7391899;19;20391;-45
2022/04/24 03:26:56;;;;;;;16.50;8.40;;;;;;;4.47;100.00;99973.84;7387657;19;20459;-45
2022/04/24 03:29:29;;;;;;;16.77;7.53;;;;;;;4.39;100.00;99977.63;7391971;19;20374;-46
2022/04/24 03:31:58;;;;;;;24.90;10.13;;;;;;;4.38;100.00;99971.66;7388045;19;20376;-44
2022/04/24 03:34:28;;;;;;;12.90;6.20;;;;;;;4.32;100.00;99954.31;7390460;19;20956;-47
2022/04/24 03:36:57;;;;;;;22.27;11.20;;;;;;;4.34;100.00;99946.72;7388480;19;20394;-46
2022/04/24 03:39:27;;;;;;;19.50;7.63;;;;;;;4.30;100.00;99934.59;7392933;19;20398;-44
2022/04/24 03:41:56;;;;;;;16.47;8.70;;;;;;;4.34;100.00;99921.19;7385749;19;20394;-44
2022/04/24 03:44:28;;;;;;;16.30;7.50;;;;;;;4.32;100.00;99912.56;7391447;19;20925;-46
2022/04/24 03:46:58;;;;;;;16.87;8.80;;;;;;;4.31;100.00;99911.69;7389890;19;20384;-45
2022/04/24 03:49:28;;;;;;;17.13;9.53;;;;;;;4.38;100.00;99902.69;7399344;19;20387;-45
2022/04/24 03:51:57;;;;;;;26.47;14.10;;;;;;;4.37;100.00;99890.72;7392920;19;20392;-45
2022/04/24 03:54:27;;;;;;;15.10;8.13;;;;;;;4.29;100.00;99877.53;7398458;19;20422;-49
2022/04/24 03:56:56;;;;;;;20.23;8.23;;;;;;;4.31;100.00;99875.06;7395048;19;20383;-45
2022/04/24 03:59:29;;;;;;;16.33;7.90;;;;;;;4.26;100.00;99861.16;7399816;19;20398;-49
2022/04/24 04:01:59;;;;;;;18.50;7.60;;;;;;;4.27;100.00;99855.25;7394334;19;20394;-46
2022/04/24 04:04:28;;;;;;;18.03;9.13;;;;;;;4.28;100.00;99849.34;7399397;19;20800;-44
2022/04/24 04:06:58;;;;;;;14.50;7.77;;;;;;;4.32;100.00;99839.38;7390761;19;20392;-44
2022/04/24 04:09:28;;;;;;;25.17;11.00;;;;;;;4.35;100.00;99833.53;7399006;19;20373;-45
2022/04/24 04:11:58;;;;;;;25.07;10.30;;;;;;;4.30;100.00;99825.66;7393696;19;20384;-46
2022/04/24 04:14:30;;;;;;;13.30;7.47;;;;;;;4.31;100.00;99824.00;7400169;19;20419;-47
2022/04/24 04:16:59;;;;;;;17.40;8.87;;;;;;;4.34;100.00;99813.91;7392366;19;20384;-46
2022/04/24 04:19:34;;;;;;;24.77;11.80;;;;;;;4.42;100.00;99807.53;7399622;19;20387;-47
2022/04/24 04:22:03;;;;;;;17.30;8.50;;;;;;;4.41;100.00;99795.56;7395042;19;20402;-49
2022/04/24 04:24:33;;;;;;;19.10;8.97;;;;;;;4.41;100.00;99789.59;7396291;19;20422;-46
2022/04/24 04:27:02;;;;;;;18.63;8.70;;;;;;;4.40;100.00;99778.47;7395329;19;20388;-45
2022/04/24 04:29:34;;;;;;;21.43;10.23;;;;;;;4.42;100.00;99764.09;7398581;19;20375;-47
2022/04/24 04:32:04;;;;;;;19.63;8.90;;;;;;;4.38;100.00;99749.44;7391971;19;20363;-45
2022/04/24 04:34:34;;;;;;;26.47;10.30;;;;;;;4.49;100.00;99731.19;7400462;19;20423;-44
2022/04/24 04:37:03;;;;;;;16.23;8.73;;;;;;;4.46;100.00;99722.59;7394397;19;20379;-45
2022/04/24 04:39:33;;;;;;;17.50;9.20;;;;;;;4.57;100.00;99709.47;7397857;19;20735;-45
2022/04/24 04:42:09;;;;;;;20.63;9.63;;;;;;;4.60;100.00;99691.72;7391892;19;20427;-44
2022/04/24 04:44:43;;;;;;;22.10;10.20;;;;;;;4.60;100.00;99686.63;7397299;19;20403;-46
2022/04/24 04:47:12;;;;;;;20.13;8.40;;;;;;;4.67;100.00;99670.78;7393506;19;20407;-45
2022/04/24 04:49:42;;;;;;;24.43;10.00;;;;;;;4.65;100.00;99661.28;7398401;19;20422;-46
2022/04/24 04:52:11;;;;;;;22.53;11.03;;;;;;;4.75;100.00;99663.50;7394529;19;20435;-48
2022/04/24 04:54:41;;;;;;;20.33;8.87;;;;;;;4.76;100.00;99654.16;7398842;19;20423;-45
2022/04/24 04:57:11;;;;;;;17.03;9.80;;;;;;;4.84;100.00;99640.94;7392837;19;20384;-46
2022/04/24 04:59:43;;;;;;;22.47;10.87;;;;;;;4.97;100.00;99634.69;7397493;19;20378;-44
2022/04/24 05:02:13;;;;;;;18.07;9.37;;;;;;;5.00;100.00;99634.84;7391425;19;20391;-45
2022/04/24 05:04:44;;;;;;;19.43;8.57;;;;;;;5.04;100.00;99629.88;7396316;19;20426;-45
2022/04/24 05:07:14;;;;;;;21.87;10.77;;;;;;;5.08;100.00;99637.75;7392518;19;20430;-48
2022/04/24 05:09:43;;;;;;;15.50;7.67;;;;;;;5.08;100.00;99632.63;7398045;19;20736;-44
2022/04/24 05:12:13;;;;;;;14.47;7.80;;;;;;;5.14;100.00;99635.47;7392836;19;20407;-48
2022/04/24 05:14:45;;;;;;;18.37;8.90;;;;;;;5.27;100.00;99631.81;7395551;19;20420;-47
2022/04/24 05:17:14;;;;;;;15.80;7.23;;;;;;;5.29;100.00;99636.09;7388871;19;20411;-49
2022/04/24 05:19:44;;;;;;;15.33;6.60;;;;;;;5.23;100.00;99652.91;7397218;19;20909;-45
2022/04/24 05:22:19;;;;;;;14.63;6.93;;;;;;;5.36;100.00;99648.34;7392603;19;20402;-45
2022/04/24 05:24:49;;;;;;;21.23;7.27;;;;;;;5.37;100.00;99660.34;7395636;19;20399;-44
2022/04/24 05:27:19;;;;;;;22.63;9.93;;;;;;;5.47;100.00;99659.06;7392277;19;20415;-48
2022/04/24 05:29:51;;;;;;;17.43;8.07;;;;;;;5.52;100.00;99658.47;7397455;19;20388;-49
2022/04/24 05:32:21;;;;;;;13.57;6.57;;;;;;;5.54;100.00;99664.53;7388984;19;20403;-46
2022/04/24 05:34:50;;;;;;;119.40;53.77;;;;;;;6.23;100.00;99657.25;7394579;19;20416;-47
2022/04/24 05:37:20;;;;;;;35.60;17.40;;;;;;;6.51;100.00;99666.06;7388744;19;20950;-47
2022/04/24 05:39:49;;;;;;;25.07;12.47;;;;;;;6.64;100.00;99681.94;7397090;19;20393;-43
2022/04/24 05:42:19;;;;;;;31.80;16.37;;;;;;;7.03;100.00;99694.59;7389246;19;20488;-45
2022/04/24 05:44:51;;;;;;;15.23;8.47;;;;;;;6.79;100.00;99718.47;7395327;19;20939;-46
2022/04/24 05:47:20;;;;;;;27.87;12.27;;;;;;;6.83;100.00;99752.78;7391065;19;20420;-46
2022/04/24 05:49:50;;;;;;;18.10;9.00;;;;;;;6.84;100.00;99780.16;7396682;19;20393;-44
2022/04/24 05:52:19;;;;;;;22.20;11.60;;;;;;;7.02;100.00;99804.00;7388784;19;20417;-46
2022/04/24 05:54:49;;;;;;;17.00;8.53;;;;;;;7.36;100.00;99837.84;7393855;19;20414;-44
2022/04/24 05:57:18;;;;;;;15.10;6.67;;;;;;;7.33;100.00;99858.25;7389246;19;20755;-47
2022/04/24 05:59:50;;;;;;;12.57;6.27;;;;;;;7.38;100.00;99882.41;7397377;19;20391;-52
2022/04/24 06:02:20;;;;;;;11.90;5.80;;;;;;;7.34;100.00;99913.03;7391197;19;20414;-46
2022/04/24 06:04:49;;;;;;;9.73;5.77;;;;;;;7.40;100.00;99929.53;7394024;19;20780;-47
2022/04/24 06:07:19;;;;;;;10.20;5.60;;;;;;;7.41;100.00;99945.81;7392060;19;20425;-48
2022/04/24 06:09:48;;;;;;;6.50;4.67;;;;;;;7.30;100.00;99961.63;7394846;19;20397;-45
2022/04/24 06:12:18;;;;;;;10.30;5.37;;;;;;;7.47;100.00;99979.44;7388867;19;20450;-45
2022/04/24 06:14:47;;;;;;;10.57;4.90;;;;;;;7.60;100.00;99985.97;7393433;19;20425;-47
2022/04/24 06:17:19;;;;;;;13.07;6.40;;;;;;;7.40;100.00;99998.84;7388505;19;20398;-45
2022/04/24 06:19:49;;;;;;;14.40;7.93;;;;;;;7.68;100.00;100005.16;7395865;19;20380;-46
2022/04/24 06:22:18;;;;;;;11.63;5.50;;;;;;;7.43;100.00;100010.94;7390544;19;20409;-44
2022/04/24 06:24:50;;;;;;;8.20;5.10;;;;;;;7.53;100.00;100019.88;7393865;19;20438;-49
2022/04/24 06:27:19;;;;;;;21.23;10.90;;;;;;;7.57;100.00;100032.06;7390354;19;20415;-44
2022/04/24 06:29:49;;;;;;;13.97;5.63;;;;;;;7.61;100.00;100036.50;7395544;19;20470;-44
2022/04/24 06:32:21;;;;;;;18.83;10.43;;;;;;;7.52;100.00;100041.25;7389972;19;20495;-48
2022/04/24 06:34:50;;;;;;;20.17;8.20;;;;;;;7.99;100.00;100041.47;7392098;19;20420;-48
2022/04/24 06:37:20;;;;;;;13.67;7.13;;;;;;;8.28;100.00;100048.59;7387610;19;20812;-44
2022/04/24 06:39:49;;;;;;;14.97;7.20;;;;;;;8.26;100.00;100058.84;7395123;19;20387;-47
2022/04/24 06:42:19;;;;;;;15.20;7.70;;;;;;;8.13;100.00;100070.31;7389657;19;20421;-45
2022/04/24 06:44:49;;;;;;;16.33;6.50;;;;;;;7.83;100.00;100081.06;7393329;19;20491;-46
2022/04/24 06:47:21;;;;;;;15.33;6.10;;;;;;;7.74;100.00;100078.97;7389553;19;20748;-50
2022/04/24 06:49:50;;;;;;;8.50;4.57;;;;;;;7.68;100.00;100076.16;7394099;19;20394;-45
2022/04/24 06:52:20;;;;;;;10.50;5.27;;;;;;;7.64;100.00;100064.88;7387172;19;20475;-45
2022/04/24 06:54:50;;;;;;;12.90;5.93;;;;;;;7.52;100.00;100074.63;7392622;19;20471;-46
2022/04/24 06:57:19;;;;;;;10.90;6.60;;;;;;;7.56;100.00;100061.13;7389664;19;20715;-44
2022/04/24 06:59:49;;;;;;;8.90;4.77;;;;;;;7.75;100.00;100072.16;7394384;19;20470;-45
2022/04/24 07:02:21;;;;;;;10.70;5.23;;;;;;;7.75;100.00;100072.16;7388687;19;20656;-45
2022/04/24 07:04:50;;;;;;;8.47;4.33;;;;;;;7.67;100.00;100069.25;7391716;19;20414;-46
2022/04/24 07:07:20;;;;;;;10.03;5.40;;;;;;;7.75;100.00;100072.16;7387137;19;20403;-46
2022/04/24 07:09:49;;;;;;;7.50;4.70;;;;;;;7.78;100.00;100073.16;7393256;19;20409;-45
2022/04/24 07:12:19;;;;;;;11.37;4.93;;;;;;;7.86;100.00;100081.22;7387946;19;20442;-47
2022/04/24 07:14:49;;;;;;;8.87;4.50;;;;;;;7.89;100.00;100085.59;7392681;19;20414;-46
2022/04/24 07:17:21;;;;;;;10.33;5.60;;;;;;;7.94;100.00;100084.97;7387818;19;20403;-44
2022/04/24 07:19:51;;;;;;;9.37;5.00;;;;;;;8.03;100.00;100088.72;7393816;19;21035;-49
2022/04/24 07:22:21;;;;;;;8.50;5.03;;;;;;;8.23;100.00;100097.25;7386079;19;20402;-47
2022/04/24 07:24:50;;;;;;;7.97;4.33;;;;;;;8.27;100.00;100100.81;7391666;19;20419;-45
2022/04/24 07:27:20;;;;;;;10.90;4.90;;;;;;;8.35;100.00;100102.00;7386934;19;20415;-44
2022/04/24 07:29:49;;;;;;;15.80;5.27;;;;;;;8.42;100.00;100108.28;7393971;19;20713;-49
2022/04/24 07:32:22;;;;;;;9.00;4.80;;;;;;;8.41;100.00;100115.09;7386795;19;20410;-49
2022/04/24 07:34:51;;;;;;;8.00;3.70;;;;;;;8.48;100.00;100119.69;7391977;19;20416;-44
2022/04/24 07:37:21;;;;;;;9.17;3.80;;;;;;;8.42;100.00;100116.88;7387585;19;20487;-49
2022/04/24 07:39:50;;;;;;;9.20;4.50;;;;;;;8.50;100.00;100118.06;7393423;19;20391;-45
2022/04/24 07:42:20;;;;;;;7.73;4.33;;;;;;;8.58;100.00;100125.22;7385829;19;20746;-46
2022/04/24 07:44:51;;;;;;;8.83;3.93;;;;;;;8.66;100.00;100128.97;7389854;19;20420;-46
2022/04/24 07:47:23;;;;;;;7.90;4.63;;;;;;;8.62;100.00;100138.25;7385324;19;20417;-45
2022/04/24 07:49:52;;;;;;;16.33;8.43;;;;;;;8.75;100.00;100134.50;7393079;19;20388;-44
2022/04/24 07:52:22;;;;;;;6.77;3.90;;;;;;;8.82;100.00;100135.59;7386860;19;20417;-45
2022/04/24 07:54:51;;;;;;;12.40;5.50;;;;;;;8.93;100.00;100143.75;7391039;19;20954;-43
2022/04/24 07:57:21;;;;;;;12.10;5.30;;;;;;;9.30;100.00;100150.28;7386948;19;20429;-46
2022/04/24 07:59:50;;;;;;;11.50;4.60;;;;;;;9.24;100.00;100160.38;7391403;19;20408;-45
2022/04/24 08:02:22;;;;;;;14.43;7.17;;;;;;;9.22;100.00;100168.84;7387491;19;20407;-47
2022/04/24 08:04:52;;;;;;;35.37;13.70;;;;;;;9.11;100.00;100173.56;7390075;19;20422;-47
2022/04/24 08:07:22;;;;;;;10.70;4.90;;;;;;;9.65;100.00;100169.53;7387079;19;20403;-45
2022/04/24 08:09:52;;;;;;;25.93;9.47;;;;;;;10.00;100.00;100180.22;7394116;19;20406;-45
2022/04/24 08:12:21;;;;;;;82.33;27.13;;;;;;;10.06;100.00;100189.88;7388975;19;20399;-46
2022/04/24 08:14:51;;;;;;;27.00;10.30;;;;;;;10.24;100.00;100184.47;7390461;19;20991;-45
2022/04/24 08:17:23;;;;;;;10.97;5.10;;;;;;;10.06;100.00;100205.34;7382900;19;20411;-45
2022/04/24 08:19:52;;;;;;;7.57;4.00;;;;;;;9.49;100.00;100220.47;7391629;19;20388;-45
2022/04/24 08:22:22;;;;;;;13.07;5.27;;;;;;;9.32;100.00;100212.13;7384765;19;20415;-46
2022/04/24 08:24:52;;;;;;;8.20;4.07;;;;;;;9.36;100.00;100210.53;7390031;19;20399;-49
2022/04/24 08:27:23;;;;;;;6.87;3.50;;;;;;;9.26;100.00;100209.31;7389885;19;20433;-49
2022/04/24 08:29:53;;;;;;;5.80;3.33;;;;;;;9.04;100.00;100211.91;7391945;19;20388;-45
2022/04/24 08:32:25;;;;;;;7.77;3.60;;;;;;;8.97;100.00;100207.34;7388034;19;20474;-44
2022/04/24 08:34:56;;;;;;;7.97;3.60;;;;;;;9.00;100.00;100207.50;7396892;19;20419;-46
2022/04/24 08:37:26;;;;;;;8.07;3.70;;;;;;;9.06;100.00;100206.84;7392399;19;20418;-45
2022/04/24 08:39:56;;;;;;;7.47;3.70;;;;;;;9.13;100.00;100206.25;7398742;19;20742;-48
2022/04/24 08:42:26;;;;;;;6.57;3.67;;;;;;;9.30;100.00;100200.88;7392149;19;20415;-44
2022/04/24 08:44:57;;;;;;;8.90;3.50;;;;;;;9.43;100.00;100209.94;7397144;19;20429;-43
2022/04/24 08:47:30;;;;;;;8.00;4.07;;;;;;;9.32;100.00;100219.84;7393063;19;20406;-47
2022/04/24 08:50:01;;;;;;;12.20;4.73;;;;;;;9.39;100.00;100216.69;7396212;19;20383;-44
2022/04/24 08:52:33;;;;;;;8.77;3.87;;;;;;;9.47;100.00;100219.53;7392705;19;20433;-46
2022/04/24 08:55:03;;;;;;;14.83;6.50;;;;;;;9.34;100.00;100225.06;7395836;19;20425;-43
2022/04/24 08:57:33;;;;;;;9.17;3.90;;;;;;;9.28;100.00;100221.41;7393532;19;20397;-45
2022/04/24 09:00:03;;;;;;;7.73;4.03;;;;;;;9.49;100.00;100223.03;7397949;19;20384;-44
2022/04/24 09:02:54;;;;;;;7.77;3.60;;;;;;;9.62;100.00;100219.25;7391616;19;20411;-46
2022/04/24 09:05:24;;;;;;;13.53;4.90;;;;;;;9.68;100.00;100223.72;7395343;19;20490;-46
2022/04/24 09:07:55;;;;;;;12.70;4.57;;;;;;;9.91;100.00;100216.88;7393489;19;20939;-44
2022/04/24 09:10:52;;;;;;;6.97;3.80;;;;;;;9.95;100.00;100216.13;7397775;19;20386;-44
2022/04/24 09:14:14;;;;;;;7.90;4.10;;;;;;;10.00;100.00;100216.28;7392045;19;20432;-46
2022/04/24 09:16:22;;;;;;;9.77;4.33;;;;;;;10.02;100.00;100209.50;7397410;19;20830;-47
2022/04/24 09:18:55;;;;;;;13.97;5.07;;;;;;;10.38;100.00;100203.88;7388005;19;20944;-46
2022/04/24 09:21:24;;;;;;;7.63;4.00;;;;;;;10.44;100.00;100208.38;7396835;19;20380;-46
2022/04/24 09:23:54;;;;;;;10.70;4.80;;;;;;;10.41;100.00;100221.13;7388836;19;20411;-45
2022/04/24 09:26:26;;;;;;;11.47;3.70;;;;;;;10.05;100.00;100230.22;7397461;19;20390;-44
2022/04/24 09:29:13;;;;;;;7.20;3.80;;;;;;;10.02;100.00;100219.81;7380107;19;20977;-47
2022/04/24 09:31:46;;;;;;;9.60;3.80;;;;;;;10.03;100.00;100213.84;7393857;19;20390;-45
2022/04/24 09:34:22;;;;;;;24.17;11.57;;;;;;;9.92;100.00;100221.19;7386572;19;20447;-48
2022/04/24 09:37:02;;;;;;;7.53;3.80;;;;;;;10.17;100.00;100213.44;7389583;19;20477;-48
2022/04/24 09:39:32;;;;;;;10.33;4.97;;;;;;;10.27;100.00;100210.38;7395878;19;20405;-45
2022/04/24 09:42:06;;;;;;;12.03;3.67;;;;;;;10.47;100.00;100215.34;7390346;19;20402;-47
2022/04/24 09:44:41;;;;;;;9.77;3.80;;;;;;;10.32;100.00;100213.09;7393200;19;20924;-44
2022/04/24 09:47:30;;;;;;;12.53;5.83;;;;;;;10.35;100.00;100232.13;7390203;19;20423;-44
2022/04/24 09:50:05;;;;;;;12.83;5.10;;;;;;;9.95;100.00;100228.16;7396063;19;20384;-45
2022/04/24 09:52:34;;;;;;;7.60;3.03;;;;;;;9.88;100.00;100236.50;7387642;19;20420;-45
2022/04/24 09:55:04;;;;;;;11.40;4.17;;;;;;;10.09;100.00;100236.34;7394502;19;20411;-44
2022/04/24 09:57:34;;;;;;;16.97;5.50;;;;;;;9.98;100.00;100229.16;7388707;19;20399;-44
2022/04/24 10:00:06;;;;;;;8.20;3.70;;;;;;;10.11;100.00;100224.41;7396013;19;20737;-47
2022/04/24 10:02:35;;;;;;;6.87;3.70;;;;;;;10.11;100.00;100235.59;7389036;19;20411;-45
2022/04/24 10:05:09;;;;;;;8.57;3.53;;;;;;;10.24;100.00;100241.19;7393816;19;20452;-46
2022/04/24 10:07:39;;;;;;;8.20;3.93;;;;;;;10.21;100.00;100238.50;7390117;19;20570;-46
2022/04/24 10:10:09;;;;;;;16.00;4.70;;;;;;;10.42;100.00;100251.28;7395691;19;20394;-48
2022/04/24 10:12:40;;;;;;;16.10;5.00;;;;;;;10.58;100.00;100244.97;7384956;19;20759;-46
2022/04/24 10:15:16;;;;;;;9.30;4.53;;;;;;;10.60;100.00;100248.47;7393075;19;20938;-46
2022/04/24 10:18:13;;;;;;;8.33;3.77;;;;;;;10.77;100.00;100245.56;7391883;19;20502;-47
2022/04/24 10:20:53;;;;;;;7.90;3.50;;;;;;;10.50;100.00;100234.38;7395643;19;20394;-47
2022/04/24 10:23:32;;;;;;;13.13;4.90;;;;;;;10.44;100.00;100243.59;7385815;19;20415;-50
2022/04/24 10:26:03;;;;;;;7.87;3.77;;;;;;;10.75;100.00;100250.69;7393396;19;20511;-51
2022/04/24 10:28:40;;;;;;;7.03;3.27;;;;;;;11.01;100.00;100247.16;7387770;19;20946;-47
2022/04/24 10:31:17;;;;;;;8.63;4.17;;;;;;;11.38;100.00;100248.31;7395035;19;20764;-46
2022/04/24 10:33:55;;;;;;;19.13;10.87;;;;;;;11.50;100.00;100258.16;7384018;19;20435;-48
2022/04/24 10:36:27;;;;;;;14.57;5.70;;;;;;;11.51;100.00;100253.84;7398621;19;20388;-48
2022/04/24 10:38:59;;;;;;;12.23;5.80;;;;;;;11.55;100.00;100266.03;7385947;19;20415;-46
2022/04/24 10:41:57;;;;;;;9.73;5.00;;;;;;;11.26;100.00;100258.28;7394377;19;20388;-49
2022/04/24 10:44:27;;;;;;;11.73;5.23;;;;;;;11.82;100.00;100241.81;7387058;19;20433;-46
2022/04/24 10:46:57;;;;;;;20.70;11.03;;;;;;;11.64;100.00;100229.25;7385145;19;20927;-47
2022/04/24 10:49:34;;;;;;;10.00;4.90;;;;;;;11.44;100.00;100245.91;7392956;19;20404;-47
2022/04/24 10:52:08;;;;;;;11.17;4.63;;;;;;;11.37;100.00;100243.97;7385526;19;20390;-47
2022/04/24 10:54:39;;;;;;;9.93;4.90;;;;;;;11.39;100.00;100244.03;7391832;19;20951;-45
2022/04/24 10:57:19;;;;;;;14.50;5.97;;;;;;;12.23;100.00;100247.31;7384229;19;20406;-49
2022/04/24 10:59:52;;;;;;;8.30;4.70;;;;;;;12.44;100.00;100256.47;7393947;19;20465;-46
2022/04/24 11:02:23;;;;;;;9.43;3.80;;;;;;;11.66;100.00;100253.44;7380758;19;20439;-48
2022/04/24 11:05:02;;;;;;;11.40;5.90;;;;;;;11.90;100.00;100250.69;7394981;19;20437;-47
2022/04/24 11:07:34;;;;;;;9.57;4.47;;;;;;;12.20;100.00;100244.63;7385226;19;20753;-47
2022/04/24 11:10:05;;;;;;;6.77;3.57;;;;;;;12.09;100.00;100258.97;7393965;19;20397;-45
2022/04/24 11:12:35;;;;;;;9.10;4.37;;;;;;;11.64;100.00;100258.53;7381445;19;20418;-48
2022/04/24 11:15:07;;;;;;;7.60;5.20;;;;;;;11.66;100.00;100253.44;7391866;19;20459;-46
2022/04/24 11:17:36;;;;;;;9.63;4.63;;;;;;;11.85;100.00;100260.88;7382112;19;20937;-49
2022/04/24 11:20:09;;;;;;;13.33;6.47;;;;;;;11.69;100.00;100258.69;7393875;19;20377;-48
2022/04/24 11:22:50;;;;;;;10.20;4.50;;;;;;;12.08;100.00;100246.88;7385004;19;20462;-46
2022/04/24 11:25:21;;;;;;;8.20;4.70;;;;;;;11.66;100.00;100253.44;7390242;19;20450;-46
2022/04/24 11:27:53;;;;;;;7.13;4.50;;;;;;;11.73;100.00;100247.59;7384688;19;20422;-47
2022/04/24 11:30:25;;;;;;;7.40;3.70;;;;;;;11.82;100.00;100247.00;7393369;19;20402;-47
2022/04/24 11:32:59;;;;;;;7.50;3.97;;;;;;;11.63;100.00;100249.03;7379961;19;20476;-47
2022/04/24 11:35:32;;;;;;;7.80;4.50;;;;;;;11.34;100.00;100244.75;7390822;19;20439;-48
2022/04/24 11:38:04;;;;;;;10.07;4.53;;;;;;;11.47;100.00;100247.72;7383202;19;20518;-46